createdAt,value
2022-09-12T00:02:11.347Z,17.52
2022-09-12T00:04:44.540Z,18.35
2022-09-12T00:07:14.676Z,19.85
2022-09-12T00:09:44.736Z,19.60
2022-09-12T00:12:14.837Z,16.73
2022-09-12T00:14:45.015Z,17.45
2022-09-12T00:17:22.004Z,17.92
2022-09-12T00:19:52.263Z,17.45
2022-09-12T00:22:22.447Z,16.73
2022-09-12T00:24:52.491Z,16.50
2022-09-12T00:27:24.931Z,17.05
2022-09-12T00:29:55.183Z,17.80
2022-09-12T00:32:27.924Z,18.80
2022-09-12T00:34:58.027Z,17.48
2022-09-12T00:37:28.127Z,18.95
2022-09-12T00:39:58.253Z,17.25
2022-09-12T00:42:28.370Z,17.85
2022-09-12T00:44:58.468Z,18.15
2022-09-12T00:47:34.710Z,17.08
2022-09-12T00:50:11.681Z,17.00
2022-09-12T00:52:53.195Z,17.48
2022-09-12T00:55:31.447Z,17.35
2022-09-12T00:58:10.742Z,16.75
2022-09-12T01:00:43.940Z,17.38
2022-09-12T01:03:20.596Z,17.25
2022-09-12T01:06:05.915Z,17.02
2022-09-12T01:08:39.001Z,17.90
2022-09-12T01:11:11.212Z,18.02
2022-09-12T01:13:41.360Z,17.88
2022-09-12T01:16:11.926Z,17.20
2022-09-12T01:19:01.778Z,17.67
2022-09-12T01:21:55.539Z,18.85
2022-09-12T01:25:05.605Z,19.67
2022-09-12T01:27:51.487Z,18.45
2022-09-12T01:30:48.198Z,18.38
2022-09-12T01:33:50.077Z,19.48
2022-09-12T01:36:48.676Z,18.02
2022-09-12T01:39:33.316Z,17.85
2022-09-12T01:42:19.320Z,17.75
2022-09-12T01:45:05.057Z,18.40
2022-09-12T01:47:50.926Z,17.75
2022-09-12T01:50:30.732Z,18.58
2022-09-12T01:53:14.656Z,17.02
2022-09-12T01:55:53.771Z,17.48
2022-09-12T01:58:30.494Z,18.38
2022-09-12T02:01:09.660Z,16.92
2022-09-12T02:03:57.043Z,17.33
2022-09-12T02:06:36.474Z,16.77
2022-09-12T02:09:15.108Z,18.10
2022-09-12T02:11:47.775Z,17.30
2022-09-12T02:14:25.013Z,18.05
2022-09-12T02:17:02.378Z,19.58
2022-09-12T02:19:45.700Z,18.88
2022-09-12T02:22:22.965Z,18.33
2022-09-12T02:24:58.644Z,18.23
2022-09-12T02:27:38.840Z,17.20
2022-09-12T02:30:14.405Z,19.00
2022-09-12T02:32:58.146Z,18.73
2022-09-12T02:35:53.994Z,17.52
2022-09-12T02:38:32.894Z,17.60
2022-09-12T02:41:03.012Z,18.42
2022-09-12T02:43:44.780Z,16.52
2022-09-12T02:46:22.529Z,15.93
2022-09-12T02:48:58.257Z,17.40
2022-09-12T02:51:31.023Z,16.45
2022-09-12T02:54:03.114Z,16.00
2022-09-12T02:56:36.804Z,16.92
2022-09-12T02:59:12.519Z,16.17
2022-09-12T03:02:18.331Z,15.43
2022-09-12T03:05:21.704Z,16.63
2022-09-12T03:08:29.351Z,16.55
2022-09-12T03:11:42.436Z,16.52
2022-09-12T03:14:31.035Z,15.90
2022-09-12T03:17:12.919Z,17.17
2022-09-12T03:19:57.436Z,16.67
2022-09-12T03:22:36.559Z,18.08
2022-09-12T03:25:20.370Z,17.70
2022-09-12T03:28:06.204Z,17.98
2022-09-12T03:30:42.334Z,18.60
2022-09-12T03:33:23.154Z,17.50
2022-09-12T03:35:54.393Z,16.38
2022-09-12T03:38:24.570Z,16.15
2022-09-12T03:41:02.176Z,15.82
2022-09-12T03:43:35.352Z,16.13
2022-09-12T03:46:10.934Z,16.30
2022-09-12T03:48:41.036Z,16.80
2022-09-12T03:51:14.232Z,17.35
2022-09-12T03:53:47.583Z,18.00
2022-09-12T03:56:20.876Z,17.20
2022-09-12T03:58:53.984Z,17.13
2022-09-12T04:01:24.918Z,16.65
2022-09-12T04:03:58.300Z,17.10
2022-09-12T04:06:28.392Z,16.63
2022-09-12T04:08:58.659Z,16.80
2022-09-12T04:11:32.386Z,15.88
2022-09-12T04:14:02.469Z,15.68
2022-09-12T04:16:35.618Z,18.17
2022-09-12T04:19:09.225Z,17.35
2022-09-12T04:21:39.575Z,15.18
2022-09-12T04:24:15.473Z,15.57
2022-09-12T04:26:51.171Z,16.75
2022-09-12T04:29:21.290Z,16.10
2022-09-12T04:31:51.903Z,15.77
2022-09-12T04:34:28.163Z,15.98
2022-09-12T04:36:58.243Z,14.82
2022-09-12T04:39:28.500Z,16.85
2022-09-12T04:42:04.412Z,14.43
2022-09-12T04:44:37.609Z,15.07
2022-09-12T04:47:07.941Z,15.68
2022-09-12T04:49:38.227Z,15.80
2022-09-12T04:52:08.603Z,17.20
2022-09-12T04:54:51.031Z,15.02
2022-09-12T04:57:26.716Z,15.32
2022-09-12T04:59:56.870Z,16.65
2022-09-12T05:02:27.033Z,16.63
2022-09-12T05:05:04.335Z,16.10
2022-09-12T05:07:34.844Z,16.25
2022-09-12T05:10:05.806Z,17.40
2022-09-12T05:12:38.640Z,15.02
2022-09-12T05:15:11.585Z,19.42
2022-09-12T05:17:48.020Z,15.85
2022-09-12T05:20:18.335Z,16.67
2022-09-12T05:22:48.486Z,18.63
2022-09-12T05:25:18.787Z,16.00
2022-09-12T05:27:57.670Z,16.83
2022-09-12T05:30:27.755Z,17.88
2022-09-12T05:32:57.901Z,20.73
2022-09-12T05:35:27.977Z,20.45
2022-09-12T05:37:58.084Z,20.30
2022-09-12T05:40:28.176Z,22.08
2022-09-12T05:43:06.691Z,24.58
2022-09-12T05:45:37.075Z,23.35
2022-09-12T05:48:07.332Z,23.00
2022-09-12T05:50:37.484Z,22.85
2022-09-12T05:53:10.027Z,20.48
2022-09-12T05:55:43.054Z,21.30
2022-09-12T05:58:15.725Z,22.55
2022-09-12T06:00:50.207Z,20.65
2022-09-12T06:03:20.400Z,21.00
2022-09-12T06:05:50.806Z,21.83
2022-09-12T06:08:21.044Z,22.55
2022-09-12T06:10:51.246Z,20.45
2022-09-12T06:13:23.936Z,21.75
2022-09-12T06:15:54.313Z,22.02
2022-09-12T06:18:24.407Z,21.50
2022-09-12T06:20:54.462Z,20.80
2022-09-12T06:23:24.508Z,20.27
2022-09-12T06:25:55.278Z,20.75
2022-09-12T06:28:29.113Z,19.35
2022-09-12T06:31:09.796Z,19.23
2022-09-12T06:33:43.027Z,20.23
2022-09-12T06:36:17.825Z,21.48
2022-09-12T06:38:48.852Z,24.67
2022-09-12T06:41:19.289Z,23.15
2022-09-12T06:43:52.077Z,22.48
2022-09-12T06:46:25.726Z,22.42
2022-09-12T06:48:56.263Z,21.60
2022-09-12T06:51:29.195Z,21.05
2022-09-12T06:54:01.029Z,19.70
2022-09-12T06:56:31.540Z,18.77
2022-09-12T06:59:07.078Z,18.90
2022-09-12T07:01:37.224Z,18.80
2022-09-12T07:04:08.191Z,19.00
2022-09-12T07:06:42.380Z,18.85
2022-09-12T07:09:16.347Z,18.45
2022-09-12T07:11:47.635Z,18.30
2022-09-12T07:14:20.277Z,16.52
2022-09-12T07:16:50.419Z,16.48
2022-09-12T07:19:20.493Z,15.35
2022-09-12T07:21:52.429Z,16.63
2022-09-12T07:24:25.351Z,13.73
2022-09-12T07:26:56.179Z,13.70
2022-09-12T07:29:37.705Z,13.38
2022-09-12T07:32:09.915Z,14.10
2022-09-12T07:34:40.266Z,14.40
2022-09-12T07:37:10.323Z,12.35
2022-09-12T07:39:40.564Z,11.93
2022-09-12T07:42:13.483Z,12.13
2022-09-12T07:44:46.939Z,12.05
2022-09-12T07:47:19.360Z,11.30
2022-09-12T07:49:52.925Z,15.95
2022-09-12T07:52:25.720Z,13.27
2022-09-12T07:54:58.728Z,9.90
2022-09-12T07:57:28.852Z,9.77
2022-09-12T08:00:04.596Z,9.77
2022-09-12T08:02:35.047Z,10.10
2022-09-12T08:05:05.227Z,10.00
2022-09-12T08:07:35.408Z,10.30
2022-09-12T08:10:06.564Z,9.02
2022-09-12T08:12:36.779Z,9.40
2022-09-12T08:15:11.263Z,8.63
2022-09-12T08:17:41.511Z,7.88
2022-09-12T08:20:12.324Z,7.78
2022-09-12T08:22:43.348Z,8.25
2022-09-12T08:25:14.024Z,6.40
2022-09-12T08:27:46.999Z,7.82
2022-09-12T08:30:22.660Z,5.80
2022-09-12T08:32:52.768Z,6.43
2022-09-12T08:35:22.809Z,5.88
2022-09-12T08:37:52.855Z,5.82
2022-09-12T08:40:25.252Z,6.28
2022-09-12T08:43:14.157Z,6.20
2022-09-12T08:46:03.005Z,5.13
2022-09-12T08:48:33.172Z,5.55
2022-09-12T08:51:05.179Z,6.80
2022-09-12T08:53:39.693Z,5.25
2022-09-12T08:56:14.879Z,5.03
2022-09-12T08:58:49.369Z,5.85
2022-09-12T09:01:33.953Z,6.65
2022-09-12T09:04:46.730Z,5.60
2022-09-12T09:07:34.192Z,6.15
2022-09-12T09:10:21.723Z,6.47
2022-09-12T09:13:06.345Z,6.10
2022-09-12T09:16:00.301Z,7.07
2022-09-12T09:18:37.016Z,5.45
2022-09-12T09:21:24.076Z,4.75
2022-09-12T09:24:05.108Z,5.15
2022-09-12T09:26:47.096Z,4.25
2022-09-12T09:29:26.127Z,3.78
2022-09-12T09:32:02.465Z,4.15
2022-09-12T09:34:38.495Z,4.50
2022-09-12T09:37:19.627Z,3.70
2022-09-12T09:40:06.675Z,4.07
2022-09-12T09:42:47.252Z,4.18
2022-09-12T09:45:29.110Z,3.80
2022-09-12T09:48:16.200Z,3.63
2022-09-12T09:50:51.156Z,3.28
2022-09-12T09:53:41.452Z,3.72
2022-09-12T09:56:23.365Z,3.50
2022-09-12T09:58:53.466Z,4.32
2022-09-12T10:01:29.406Z,3.72
2022-09-12T10:04:00.070Z,4.95
2022-09-12T10:06:40.320Z,4.28
2022-09-12T10:09:33.080Z,3.65
2022-09-12T10:12:23.077Z,4.20
2022-09-12T10:15:05.727Z,3.80
2022-09-12T10:17:46.430Z,4.00
2022-09-12T10:20:34.209Z,3.60
2022-09-12T10:23:31.256Z,3.95
2022-09-12T10:26:06.206Z,4.97
2022-09-12T10:28:43.427Z,4.03
2022-09-12T10:31:29.557Z,3.83
2022-09-12T10:34:05.612Z,3.30
2022-09-12T10:36:42.422Z,3.55
2022-09-12T10:39:25.076Z,3.60
2022-09-12T10:41:55.479Z,3.90
2022-09-12T10:44:31.064Z,4.10
2022-09-12T10:47:03.567Z,3.60
2022-09-12T10:49:38.165Z,3.13
2022-09-12T10:52:24.270Z,3.55
2022-09-12T10:54:57.774Z,3.50
2022-09-12T10:57:53.530Z,2.90
2022-09-12T11:00:30.439Z,4.05
2022-09-12T11:03:20.173Z,3.13
2022-09-12T11:05:58.048Z,3.42
2022-09-12T11:08:54.987Z,3.50
2022-09-12T11:12:00.968Z,3.25
2022-09-12T11:14:58.475Z,3.28
2022-09-12T11:17:44.304Z,4.15
2022-09-12T11:20:53.307Z,3.72
2022-09-12T11:23:59.326Z,3.90
2022-09-12T11:26:53.392Z,3.97
2022-09-12T11:29:49.482Z,3.95
2022-09-12T11:33:07.680Z,4.60
2022-09-12T11:35:45.931Z,4.68
2022-09-12T11:38:56.797Z,3.83
2022-09-12T11:41:33.842Z,4.38
2022-09-12T11:44:18.156Z,5.28
2022-09-12T11:46:52.044Z,4.85
2022-09-12T11:49:36.522Z,5.68
2022-09-12T11:52:16.323Z,4.30
2022-09-12T11:54:56.128Z,4.40
2022-09-12T11:57:38.727Z,3.58
2022-09-12T12:00:24.643Z,4.40
2022-09-12T12:03:11.380Z,4.75
2022-09-12T12:05:52.238Z,4.18
2022-09-12T12:08:24.910Z,4.85
2022-09-12T12:11:00.055Z,4.28
2022-09-12T12:13:38.667Z,5.05
2022-09-12T12:16:24.044Z,4.38
2022-09-12T12:19:00.242Z,4.00
2022-09-12T12:21:42.942Z,4.03
2022-09-12T12:24:22.055Z,3.40
2022-09-12T12:27:04.740Z,5.95
2022-09-12T12:29:46.832Z,5.97
2022-09-12T12:32:34.521Z,3.90
2022-09-12T12:35:36.043Z,4.45
2022-09-12T12:38:08.509Z,3.80
2022-09-12T12:40:38.663Z,4.45
2022-09-12T12:43:34.963Z,3.75
2022-09-12T12:46:17.329Z,3.60
2022-09-12T12:49:00.086Z,3.53
2022-09-12T12:51:47.565Z,3.58
2022-09-12T12:54:58.010Z,3.22
2022-09-12T12:57:42.990Z,3.13
2022-09-12T13:00:38.390Z,3.53
2022-09-12T13:03:31.730Z,3.25
2022-09-12T13:06:10.369Z,3.63
2022-09-12T13:08:58.895Z,3.50
2022-09-12T13:11:37.247Z,3.72
2022-09-12T13:14:10.535Z,3.78
2022-09-12T13:16:43.112Z,3.22
2022-09-12T13:19:21.752Z,3.17
2022-09-12T13:22:12.984Z,2.92
2022-09-12T13:24:48.811Z,3.63
2022-09-12T13:27:24.040Z,3.47
2022-09-12T13:30:12.199Z,6.03
2022-09-12T13:32:45.119Z,2.90
2022-09-12T13:35:26.281Z,4.63
2022-09-12T13:38:11.764Z,3.45
2022-09-12T13:41:05.819Z,3.55
2022-09-12T13:43:46.859Z,3.95
2022-09-12T13:46:33.092Z,3.20
2022-09-12T13:49:14.181Z,2.25
2022-09-12T13:51:46.035Z,1.85
2022-09-12T13:54:24.534Z,2.85
2022-09-12T13:56:55.038Z,1.77
2022-09-12T13:59:27.969Z,2.95
2022-09-12T14:01:58.055Z,2.20
2022-09-12T14:04:42.281Z,2.60
2022-09-12T14:07:20.337Z,3.08
2022-09-12T14:09:58.867Z,3.28
2022-09-12T14:12:34.928Z,2.60
2022-09-12T14:15:10.281Z,3.33
2022-09-12T14:17:43.336Z,1.50
2022-09-12T14:20:19.967Z,2.92
2022-09-12T14:22:58.393Z,1.65
2022-09-12T14:25:47.801Z,1.92
2022-09-12T14:28:23.814Z,2.70
2022-09-12T14:31:06.869Z,2.00
2022-09-12T14:33:50.427Z,2.03
2022-09-12T14:36:27.374Z,1.70
2022-09-12T14:39:02.898Z,1.70
2022-09-12T14:41:41.208Z,2.00
2022-09-12T14:44:20.620Z,1.77
2022-09-12T14:46:51.835Z,1.70
2022-09-12T14:49:31.178Z,1.98
2022-09-12T14:52:04.651Z,1.80
2022-09-12T14:54:44.473Z,1.85
2022-09-12T14:57:42.268Z,1.77
2022-09-12T15:00:26.656Z,3.42
2022-09-12T15:02:57.395Z,2.78
2022-09-12T15:05:31.279Z,2.63
2022-09-12T15:08:08.223Z,2.33
2022-09-12T15:10:47.584Z,2.03
2022-09-12T15:13:37.960Z,1.95
2022-09-12T15:16:12.561Z,1.95
2022-09-12T15:18:42.791Z,1.65
2022-09-12T15:21:21.475Z,1.75
2022-09-12T15:23:53.845Z,1.52
2022-09-12T15:26:27.567Z,1.50
2022-09-12T15:29:03.274Z,1.65
2022-09-12T15:31:35.265Z,1.67
2022-09-12T15:34:06.007Z,2.03
2022-09-12T15:36:36.144Z,1.83
2022-09-12T15:39:09.030Z,1.60
2022-09-12T15:41:41.247Z,1.80
2022-09-12T15:44:16.000Z,1.70
2022-09-12T15:46:46.582Z,1.80
2022-09-12T15:49:21.367Z,1.88
2022-09-12T15:51:51.451Z,1.70
2022-09-12T15:54:25.714Z,2.00
2022-09-12T15:56:58.703Z,1.60
2022-09-12T15:59:31.402Z,1.88
2022-09-12T16:02:04.627Z,3.92
2022-09-12T16:04:38.177Z,1.50
2022-09-12T16:07:08.391Z,1.60
2022-09-12T16:09:38.488Z,3.78
2022-09-12T16:12:09.116Z,2.45
2022-09-12T16:14:43.803Z,1.73
2022-09-12T16:17:24.194Z,2.05
2022-09-12T16:19:54.963Z,1.50
2022-09-12T16:22:25.495Z,2.67
2022-09-12T16:24:55.824Z,1.40
2022-09-12T16:27:26.105Z,1.35
2022-09-12T16:30:01.840Z,2.15
2022-09-12T16:32:32.002Z,1.88
2022-09-12T16:35:02.591Z,1.70
2022-09-12T16:37:36.758Z,1.73
2022-09-12T16:40:09.394Z,1.60
2022-09-12T16:42:43.899Z,1.58
2022-09-12T16:45:21.589Z,2.20
2022-09-12T16:47:51.632Z,1.63
2022-09-12T16:50:21.773Z,1.80
2022-09-12T16:52:51.848Z,1.83
2022-09-12T16:55:22.360Z,1.73
2022-09-12T16:57:52.432Z,1.58
2022-09-12T17:00:25.284Z,1.70
2022-09-12T17:02:55.834Z,4.40
2022-09-12T17:05:27.904Z,1.63
2022-09-12T17:07:57.985Z,1.67
2022-09-12T17:10:31.031Z,1.67
2022-09-12T17:13:01.337Z,1.60
2022-09-12T17:15:34.043Z,2.60
2022-09-12T17:18:09.409Z,1.52
2022-09-12T17:20:39.760Z,4.68
2022-09-12T17:23:12.855Z,1.80
2022-09-12T17:25:43.292Z,2.03
2022-09-12T17:28:13.322Z,1.75
2022-09-12T17:30:46.130Z,2.33
2022-09-12T17:33:16.210Z,2.63
2022-09-12T17:35:49.340Z,1.63
2022-09-12T17:38:24.551Z,2.10
2022-09-12T17:40:59.936Z,4.20
2022-09-12T17:43:30.209Z,2.40
2022-09-12T17:46:03.186Z,1.70
2022-09-12T17:48:33.477Z,1.80
2022-09-12T17:51:11.372Z,2.10
2022-09-12T17:53:41.767Z,1.80
2022-09-12T17:56:13.358Z,2.80
2022-09-12T17:58:46.091Z,3.42
2022-09-12T18:01:31.530Z,2.80
2022-09-12T18:04:05.858Z,2.33
2022-09-12T18:06:40.299Z,3.08
2022-09-12T18:09:12.639Z,4.05
2022-09-12T18:11:42.687Z,2.35
2022-09-12T18:14:20.342Z,2.53
2022-09-12T18:16:57.121Z,2.03
2022-09-12T18:19:28.842Z,2.33
2022-09-12T18:21:59.653Z,3.30
2022-09-12T18:24:30.105Z,2.53
2022-09-12T18:27:04.015Z,1.70
2022-09-12T18:29:36.914Z,3.25
2022-09-12T18:32:17.101Z,1.90
2022-09-12T18:34:47.432Z,3.55
2022-09-12T18:37:17.568Z,1.85
2022-09-12T18:39:47.658Z,1.73
2022-09-12T18:42:18.142Z,2.20
2022-09-12T18:44:48.236Z,3.40
2022-09-12T18:47:20.931Z,2.35
2022-09-12T18:49:50.973Z,3.63
2022-09-12T18:52:21.173Z,2.13
2022-09-12T18:54:51.234Z,1.67
2022-09-12T18:57:21.363Z,2.63
2022-09-12T18:59:51.816Z,2.13
2022-09-12T19:02:24.742Z,3.50
2022-09-12T19:04:57.819Z,1.83
2022-09-12T19:07:28.015Z,2.10
2022-09-12T19:10:01.136Z,1.90
2022-09-12T19:12:34.240Z,2.65
2022-09-12T19:15:04.613Z,2.92
2022-09-12T19:17:37.317Z,2.10
2022-09-12T19:20:11.245Z,3.55
2022-09-12T19:22:41.323Z,3.08
2022-09-12T19:25:12.239Z,2.13
2022-09-12T19:27:42.294Z,2.65
2022-09-12T19:30:14.601Z,3.65
2022-09-12T19:32:47.521Z,5.22
2022-09-12T19:35:23.477Z,4.38
2022-09-12T19:37:53.787Z,4.68
2022-09-12T19:40:24.106Z,2.92
2022-09-12T19:42:57.160Z,2.85
2022-09-12T19:45:30.179Z,3.33
2022-09-12T19:48:05.265Z,2.65
2022-09-12T19:50:36.018Z,3.65
2022-09-12T19:53:06.451Z,3.40
2022-09-12T19:55:39.954Z,4.03
2022-09-12T19:58:10.644Z,2.50
2022-09-12T20:00:41.462Z,2.95
2022-09-12T20:03:16.470Z,7.32
2022-09-12T20:05:46.515Z,2.97
2022-09-12T20:08:16.667Z,3.15
2022-09-12T20:10:46.973Z,3.05
2022-09-12T20:13:19.467Z,5.20
2022-09-12T20:15:49.605Z,2.80
2022-09-12T20:18:25.168Z,2.58
2022-09-12T20:20:57.515Z,4.22
2022-09-12T20:23:27.680Z,3.15
2022-09-12T20:25:57.712Z,2.47
2022-09-12T20:28:27.777Z,2.65
2022-09-12T20:31:03.311Z,4.38
2022-09-12T20:33:36.447Z,2.63
2022-09-12T20:36:09.951Z,2.50
2022-09-12T20:38:40.488Z,3.70
2022-09-12T20:41:14.024Z,2.85
2022-09-12T20:43:44.140Z,2.95
2022-09-12T20:46:21.398Z,2.22
2022-09-12T20:48:58.624Z,2.67
2022-09-12T20:51:30.414Z,3.90
2022-09-12T20:54:03.307Z,2.10
2022-09-12T20:56:35.597Z,2.20
2022-09-12T20:59:05.759Z,3.55
2022-09-12T21:01:36.392Z,3.70
2022-09-12T21:04:14.313Z,2.53
2022-09-12T21:06:45.117Z,3.67
2022-09-12T21:09:15.242Z,2.83
2022-09-12T21:11:47.627Z,3.22
2022-09-12T21:14:17.739Z,2.42
2022-09-12T21:16:50.916Z,2.53
2022-09-12T21:19:26.665Z,4.07
2022-09-12T21:21:56.754Z,2.60
2022-09-12T21:24:26.880Z,3.60
2022-09-12T21:26:59.876Z,3.30
2022-09-12T21:29:32.298Z,2.80
2022-09-12T21:32:04.687Z,2.40
2022-09-12T21:34:37.340Z,3.25
2022-09-12T21:37:07.412Z,2.40
2022-09-12T21:39:37.490Z,2.63
2022-09-12T21:42:10.633Z,2.25
2022-09-12T21:44:40.778Z,2.50
2022-09-12T21:47:10.901Z,5.38
2022-09-12T21:49:43.692Z,2.55
2022-09-12T21:52:15.334Z,2.67
2022-09-12T21:54:45.412Z,3.22
2022-09-12T21:57:15.447Z,2.58
2022-09-12T21:59:45.548Z,2.95
2022-09-12T22:02:16.104Z,2.38
2022-09-12T22:04:50.084Z,2.70
2022-09-12T22:07:23.058Z,3.83
2022-09-12T22:09:53.831Z,2.95
2022-09-12T22:12:27.516Z,2.70
2022-09-12T22:14:57.939Z,2.88
2022-09-12T22:17:28.669Z,3.03
2022-09-12T22:20:01.395Z,3.25
2022-09-12T22:22:43.893Z,2.58
2022-09-12T22:25:16.500Z,2.70
2022-09-12T22:27:46.543Z,2.95
2022-09-12T22:30:16.886Z,2.63
2022-09-12T22:32:48.195Z,3.42
2022-09-12T22:35:21.573Z,2.92
2022-09-12T22:37:51.729Z,2.55
2022-09-12T22:40:21.984Z,2.85
2022-09-12T22:42:55.382Z,3.40
2022-09-12T22:45:25.885Z,2.83
2022-09-12T22:48:00.717Z,3.05
2022-09-12T22:50:36.960Z,3.00
2022-09-12T22:53:07.261Z,3.35
2022-09-12T22:55:39.920Z,3.80
2022-09-12T22:58:09.965Z,6.30
2022-09-12T23:00:48.295Z,4.53
2022-09-12T23:03:22.720Z,2.88
2022-09-12T23:05:55.475Z,3.05
2022-09-12T23:08:31.916Z,3.00
2022-09-12T23:11:06.524Z,3.20
2022-09-12T23:13:37.048Z,3.10
2022-09-12T23:16:10.317Z,2.70
2022-09-12T23:18:40.890Z,3.40
2022-09-12T23:21:16.004Z,2.80
2022-09-12T23:23:46.824Z,2.75
2022-09-12T23:26:19.995Z,3.15
2022-09-12T23:28:56.048Z,2.88
2022-09-12T23:31:30.690Z,3.67
2022-09-12T23:34:03.571Z,2.45
2022-09-12T23:36:36.916Z,3.20
2022-09-12T23:39:09.799Z,2.47
2022-09-12T23:41:40.513Z,2.85
2022-09-12T23:44:10.764Z,3.33
2022-09-12T23:46:50.029Z,3.90
2022-09-12T23:49:20.071Z,2.72
2022-09-12T23:51:52.894Z,2.67
2022-09-12T23:54:22.971Z,2.60
2022-09-12T23:56:53.109Z,4.47
2022-09-12T23:59:23.775Z,2.50
